createdAt,value
2023-04-18T00:01:51.608Z,8.05
2023-04-18T00:04:19.329Z,8.48
2023-04-18T00:06:47.477Z,7.65
2023-04-18T00:09:14.100Z,7.93
2023-04-18T00:11:41.272Z,8.07
2023-04-18T00:14:08.505Z,7.60
2023-04-18T00:16:35.094Z,7.95
2023-04-18T00:19:04.534Z,8.18
2023-04-18T00:21:32.964Z,7.80
2023-04-18T00:23:59.727Z,8.25
2023-04-18T00:26:27.661Z,7.65
2023-04-18T00:28:54.164Z,7.53
2023-04-18T00:31:20.765Z,7.95
2023-04-18T00:33:47.422Z,8.05
2023-04-18T00:36:13.925Z,7.88
2023-04-18T00:38:40.753Z,7.03
2023-04-18T00:41:07.422Z,8.57
2023-04-18T00:43:35.106Z,7.53
2023-04-18T00:46:01.744Z,8.73
2023-04-18T00:48:29.723Z,7.53
2023-04-18T00:50:57.181Z,8.02
2023-04-18T00:53:24.198Z,8.43
2023-04-18T00:55:51.398Z,8.80
2023-04-18T00:58:17.955Z,7.97
2023-04-18T01:00:44.550Z,8.93
2023-04-18T01:03:11.318Z,8.05
2023-04-18T01:05:38.112Z,8.50
2023-04-18T01:08:05.473Z,8.27
2023-04-18T01:10:32.360Z,8.30
2023-04-18T01:13:19.527Z,9.48
2023-04-18T01:15:48.585Z,9.27
2023-04-18T01:18:20.697Z,9.50
2023-04-18T01:20:50.118Z,8.88
2023-04-18T01:23:18.427Z,9.05
2023-04-18T01:25:48.777Z,9.15
2023-04-18T01:28:15.959Z,9.55
2023-04-18T01:30:43.987Z,9.85
2023-04-18T01:33:13.156Z,8.43
2023-04-18T01:35:39.854Z,9.75
2023-04-18T01:38:06.439Z,8.77
2023-04-18T01:40:35.400Z,8.68
2023-04-18T01:43:04.090Z,9.10
2023-04-18T01:45:31.997Z,9.65
2023-04-18T01:47:59.050Z,9.80
2023-04-18T01:50:26.021Z,9.80
2023-04-18T01:52:52.638Z,9.10
2023-04-18T01:55:19.316Z,9.32
2023-04-18T01:57:47.105Z,9.00
2023-04-18T02:00:14.973Z,9.40
2023-04-18T02:02:43.652Z,10.02
2023-04-18T02:05:10.852Z,12.10
2023-04-18T02:07:37.903Z,12.57
2023-04-18T02:10:04.808Z,10.93
2023-04-18T02:12:31.960Z,10.80
2023-04-18T02:14:58.467Z,10.95
2023-04-18T02:17:25.937Z,10.95
2023-04-18T02:19:52.525Z,12.52
2023-04-18T02:22:19.293Z,9.98
2023-04-18T02:24:45.950Z,10.85
2023-04-18T02:27:12.747Z,10.77
2023-04-18T02:29:39.518Z,11.10
2023-04-18T02:32:06.491Z,10.52
2023-04-18T02:34:35.083Z,12.02
2023-04-18T02:37:02.044Z,11.65
2023-04-18T02:39:28.621Z,10.93
2023-04-18T02:41:55.381Z,11.25
2023-04-18T02:44:22.573Z,11.43
2023-04-18T02:46:50.137Z,13.05
2023-04-18T02:49:16.658Z,11.95
2023-04-18T02:51:43.217Z,12.52
2023-04-18T02:54:09.907Z,12.02
2023-04-18T02:56:40.076Z,12.70
2023-04-18T02:59:07.193Z,11.60
2023-04-18T03:01:35.135Z,12.35
2023-04-18T03:04:01.732Z,12.45
2023-04-18T03:06:28.270Z,12.07
2023-04-18T03:08:55.672Z,12.30
2023-04-18T03:11:23.384Z,12.85
2023-04-18T03:13:49.964Z,12.68
2023-04-18T03:16:16.833Z,11.88
2023-04-18T03:18:43.634Z,13.02
2023-04-18T03:21:10.572Z,12.45
2023-04-18T03:23:37.438Z,14.27
2023-04-18T03:26:06.760Z,12.50
2023-04-18T03:28:33.564Z,13.75
2023-04-18T03:31:00.916Z,13.23
2023-04-18T03:33:28.822Z,13.70
2023-04-18T03:35:57.114Z,14.13
2023-04-18T03:38:23.707Z,13.90
2023-04-18T03:40:51.049Z,13.88
2023-04-18T03:43:19.910Z,14.20
2023-04-18T03:45:47.649Z,13.88
2023-04-18T03:48:14.578Z,14.40
2023-04-18T03:50:41.250Z,13.93
2023-04-18T03:53:07.790Z,14.82
2023-04-18T03:55:36.683Z,14.15
2023-04-18T03:58:03.628Z,15.48
2023-04-18T04:00:30.778Z,14.68
2023-04-18T04:02:57.570Z,14.02
2023-04-18T04:05:24.334Z,14.60
2023-04-18T04:07:51.029Z,14.48
2023-04-18T04:10:17.642Z,14.18
2023-04-18T04:12:44.313Z,16.42
2023-04-18T04:15:12.432Z,15.63
2023-04-18T04:17:39.375Z,15.00
2023-04-18T04:20:07.461Z,14.60
2023-04-18T04:22:36.778Z,15.20
2023-04-18T04:25:04.708Z,15.68
2023-04-18T04:27:33.969Z,14.63
2023-04-18T04:30:02.754Z,14.80
2023-04-18T04:32:29.376Z,14.57
2023-04-18T04:34:56.373Z,14.23
2023-04-18T04:37:24.762Z,14.07
2023-04-18T04:39:52.239Z,14.30
2023-04-18T04:42:19.698Z,14.52
2023-04-18T04:44:46.870Z,14.20
2023-04-18T04:47:14.652Z,13.30
2023-04-18T04:49:41.360Z,13.20
2023-04-18T04:52:07.874Z,13.23
2023-04-18T04:54:35.676Z,13.80
2023-04-18T04:57:02.404Z,13.55
2023-04-18T04:59:29.212Z,15.80
2023-04-18T05:01:57.140Z,13.52
2023-04-18T05:04:25.384Z,13.25
2023-04-18T05:06:52.180Z,14.15
2023-04-18T05:09:19.232Z,12.88
2023-04-18T05:11:47.636Z,13.25
2023-04-18T05:14:16.003Z,11.93
2023-04-18T05:16:42.794Z,13.07
2023-04-18T05:19:09.359Z,12.80
2023-04-18T05:21:37.174Z,12.27
2023-04-18T05:24:03.783Z,11.25
2023-04-18T05:26:30.405Z,12.27
2023-04-18T05:28:57.401Z,12.60
2023-04-18T05:31:24.086Z,11.57
2023-04-18T05:33:50.670Z,12.48
2023-04-18T05:36:17.313Z,12.32
2023-04-18T05:38:43.874Z,11.52
2023-04-18T05:41:10.554Z,11.95
2023-04-18T05:43:37.220Z,12.30
2023-04-18T05:46:03.875Z,11.35
2023-04-18T05:48:30.480Z,11.05
2023-04-18T05:50:57.993Z,10.07
2023-04-18T05:53:24.509Z,11.38
2023-04-18T05:55:51.168Z,11.13
2023-04-18T05:58:17.806Z,11.15
2023-04-18T06:00:44.401Z,10.93
2023-04-18T06:03:11.565Z,12.23
2023-04-18T06:05:38.628Z,11.98
2023-04-18T06:08:05.371Z,11.20
2023-04-18T06:10:31.913Z,11.05
2023-04-18T06:12:58.592Z,11.75
2023-04-18T06:15:25.181Z,10.85
2023-04-18T06:17:51.803Z,11.38
2023-04-18T06:20:18.482Z,11.45
2023-04-18T06:22:45.055Z,10.65
2023-04-18T06:25:12.041Z,11.38
2023-04-18T06:27:38.643Z,11.07
2023-04-18T06:30:07.017Z,10.20
2023-04-18T06:32:34.229Z,10.43
2023-04-18T06:35:00.768Z,9.80
2023-04-18T06:37:27.796Z,11.10
2023-04-18T06:39:54.489Z,9.85
2023-04-18T06:42:22.370Z,11.20
2023-04-18T06:44:49.409Z,10.20
2023-04-18T06:47:16.356Z,11.70
2023-04-18T06:49:42.887Z,11.18
2023-04-18T06:52:09.423Z,10.70
2023-04-18T06:54:36.245Z,11.02
2023-04-18T06:57:03.783Z,12.43
2023-04-18T06:59:31.078Z,10.70
2023-04-18T07:01:57.747Z,9.93
2023-04-18T07:04:25.074Z,9.70
2023-04-18T07:06:51.843Z,10.05
2023-04-18T07:09:18.905Z,9.77
2023-04-18T07:11:45.595Z,10.48
2023-04-18T07:14:12.585Z,9.93
2023-04-18T07:16:40.044Z,9.23
2023-04-18T07:19:06.906Z,8.60
2023-04-18T07:21:33.704Z,8.70
2023-04-18T07:24:00.409Z,8.82
2023-04-18T07:26:27.662Z,8.35
2023-04-18T07:28:54.198Z,8.98
2023-04-18T07:31:21.943Z,9.57
2023-04-18T07:33:48.510Z,9.40
2023-04-18T07:36:15.927Z,9.90
2023-04-18T07:38:42.726Z,9.10
2023-04-18T07:41:09.506Z,7.88
2023-04-18T07:43:36.201Z,8.73
2023-04-18T07:46:03.137Z,9.52
2023-04-18T07:48:29.941Z,8.88
2023-04-18T07:50:56.819Z,7.80
2023-04-18T07:53:24.490Z,9.23
2023-04-18T07:55:51.293Z,8.60
2023-04-18T07:58:17.942Z,8.35
2023-04-18T08:00:45.638Z,7.85
2023-04-18T08:03:13.228Z,8.05
2023-04-18T08:05:42.916Z,7.88
2023-04-18T08:08:11.617Z,7.35
2023-04-18T08:10:38.458Z,7.95
2023-04-18T08:13:06.225Z,7.53
2023-04-18T08:15:33.058Z,8.57
2023-04-18T08:18:00.815Z,7.97
2023-04-18T08:20:27.962Z,8.25
2023-04-18T08:23:05.038Z,7.60
2023-04-18T08:25:33.280Z,8.27
2023-04-18T08:28:00.176Z,8.70
2023-04-18T08:30:26.790Z,7.43
2023-04-18T08:32:53.907Z,7.28
2023-04-18T08:35:21.771Z,8.13
2023-04-18T08:37:48.324Z,7.68
2023-04-18T08:40:15.653Z,7.18
2023-04-18T08:42:45.100Z,7.13
2023-04-18T08:45:14.609Z,7.68
2023-04-18T08:47:42.127Z,7.43
2023-04-18T08:50:10.633Z,6.75
2023-04-18T08:52:40.164Z,6.80
2023-04-18T08:55:07.434Z,7.68
2023-04-18T08:57:35.880Z,6.88
2023-04-18T09:00:08.213Z,6.10
2023-04-18T09:05:27.103Z,7.07
2023-04-18T09:07:55.230Z,6.28
2023-04-18T09:10:33.375Z,7.13
2023-04-18T09:13:03.162Z,7.10
2023-04-18T09:15:30.466Z,7.30
2023-04-18T09:17:59.863Z,6.93
2023-04-18T09:20:30.631Z,7.10
2023-04-18T09:22:57.937Z,6.15
2023-04-18T09:25:35.917Z,6.20
2023-04-18T09:28:21.046Z,5.50
2023-04-18T09:30:48.561Z,6.60
2023-04-18T09:33:15.685Z,5.85
2023-04-18T09:35:42.517Z,5.70
2023-04-18T09:38:10.735Z,7.03
2023-04-18T09:40:37.359Z,5.28
2023-04-18T09:43:18.732Z,5.50
2023-04-18T09:45:48.904Z,5.57
2023-04-18T09:48:15.877Z,4.80
2023-04-18T09:50:45.181Z,5.43
2023-04-18T09:53:14.990Z,5.50
2023-04-18T09:55:42.438Z,4.72
2023-04-18T09:58:10.422Z,5.13
2023-04-18T10:00:38.171Z,5.82
2023-04-18T10:03:09.817Z,5.93
2023-04-18T10:05:39.849Z,5.90
2023-04-18T10:08:06.921Z,5.85
2023-04-18T10:10:34.256Z,5.30
2023-04-18T10:13:02.476Z,5.53
2023-04-18T10:15:30.905Z,4.68
2023-04-18T10:18:14.833Z,5.00
2023-04-18T10:20:42.254Z,5.25
2023-04-18T10:23:30.971Z,4.97
2023-04-18T10:25:58.573Z,4.75
2023-04-18T10:28:26.487Z,5.15
2023-04-18T10:30:54.229Z,5.43
2023-04-18T10:33:36.907Z,5.10
2023-04-18T10:36:08.962Z,6.65
2023-04-18T10:38:39.808Z,5.22
2023-04-18T10:41:23.722Z,4.68
2023-04-18T10:44:13.118Z,4.28
2023-04-18T10:47:03.954Z,4.55
2023-04-18T10:49:33.807Z,3.92
2023-04-18T10:52:01.998Z,3.70
2023-04-18T10:54:47.251Z,3.83
2023-04-18T10:57:13.990Z,4.13
2023-04-18T10:59:48.368Z,3.78
2023-04-18T11:02:30.152Z,5.07
2023-04-18T11:07:42.226Z,4.45
2023-04-18T11:10:09.823Z,4.28
2023-04-18T11:12:39.283Z,4.60
2023-04-18T11:15:15.011Z,4.15
2023-04-18T11:17:41.652Z,4.32
2023-04-18T11:20:12.739Z,5.15
2023-04-18T11:22:46.538Z,4.57
2023-04-18T11:25:13.544Z,4.55
2023-04-18T11:27:45.234Z,4.35
2023-04-18T11:30:14.072Z,4.22
2023-04-18T11:32:41.466Z,4.25
2023-04-18T11:35:09.541Z,3.97
2023-04-18T11:37:40.700Z,3.85
2023-04-18T11:40:11.719Z,4.50
2023-04-18T11:42:41.213Z,3.85
2023-04-18T11:45:15.658Z,3.75
2023-04-18T11:47:43.551Z,3.60
2023-04-18T11:50:12.150Z,3.63
2023-04-18T11:52:41.513Z,4.10
2023-04-18T11:55:21.480Z,2.75
2023-04-18T11:57:54.648Z,3.08
2023-04-18T12:00:35.363Z,3.47
2023-04-18T12:03:07.878Z,3.72
2023-04-18T12:05:39.020Z,3.40
2023-04-18T12:08:13.991Z,3.53
2023-04-18T12:10:48.426Z,3.42
2023-04-18T12:13:15.175Z,3.30
2023-04-18T12:15:47.051Z,3.13
2023-04-18T12:18:15.389Z,4.05
2023-04-18T12:20:52.495Z,3.60
2023-04-18T12:23:37.090Z,3.22
2023-04-18T12:26:14.987Z,4.10
2023-04-18T12:28:45.173Z,3.20
2023-04-18T12:31:11.939Z,2.97
2023-04-18T12:33:38.678Z,2.97
2023-04-18T12:36:06.125Z,2.75
2023-04-18T12:38:32.740Z,2.92
2023-04-18T12:40:59.424Z,2.92
2023-04-18T12:43:26.530Z,2.63
2023-04-18T12:45:55.230Z,2.78
2023-04-18T12:48:22.617Z,3.03
2023-04-18T12:50:49.307Z,3.13
2023-04-18T12:53:16.225Z,3.65
2023-04-18T12:55:42.800Z,2.55
2023-04-18T12:58:09.379Z,2.72
2023-04-18T13:00:35.967Z,3.20
2023-04-18T13:03:02.908Z,3.08
2023-04-18T13:05:32.991Z,2.88
2023-04-18T13:08:12.843Z,3.30
2023-04-18T13:10:43.607Z,3.28
2023-04-18T13:13:11.443Z,3.35
2023-04-18T13:15:38.175Z,3.28
2023-04-18T13:18:06.538Z,2.92
2023-04-18T13:20:34.121Z,3.00
2023-04-18T13:23:02.628Z,3.00
2023-04-18T13:25:29.225Z,3.15
2023-04-18T13:27:56.514Z,3.28
2023-04-18T13:30:23.090Z,3.10
2023-04-18T13:32:50.181Z,3.40
2023-04-18T13:35:16.901Z,3.03
2023-04-18T13:37:43.761Z,3.33
2023-04-18T13:40:11.073Z,3.35
2023-04-18T13:42:38.765Z,3.22
2023-04-18T13:45:06.349Z,3.25
2023-04-18T13:47:33.020Z,3.40
2023-04-18T13:50:00.074Z,3.22
2023-04-18T13:52:28.051Z,3.33
2023-04-18T13:54:56.389Z,3.60
2023-04-18T13:57:24.066Z,3.85
2023-04-18T13:59:50.947Z,4.00
2023-04-18T14:02:17.642Z,4.00
2023-04-18T14:04:44.510Z,4.40
2023-04-18T14:07:11.341Z,5.15
2023-04-18T14:09:37.971Z,5.32
2023-04-18T14:12:05.016Z,5.43
2023-04-18T14:14:32.587Z,5.40
2023-04-18T14:16:59.264Z,5.47
2023-04-18T14:19:27.080Z,5.80
2023-04-18T14:21:53.666Z,6.18
2023-04-18T14:24:20.417Z,6.05
2023-04-18T14:26:48.133Z,6.50
2023-04-18T14:29:15.085Z,6.78
2023-04-18T14:31:42.204Z,7.40
2023-04-18T14:34:09.866Z,8.20
2023-04-18T14:36:36.973Z,7.60
2023-04-18T14:39:03.702Z,7.03
2023-04-18T14:41:30.351Z,8.32
2023-04-18T14:43:56.873Z,7.68
2023-04-18T14:46:23.571Z,7.28
2023-04-18T14:48:51.364Z,8.00
2023-04-18T14:51:18.038Z,7.03
2023-04-18T14:53:44.813Z,6.63
2023-04-18T14:56:11.756Z,6.68
2023-04-18T14:58:38.505Z,7.03
2023-04-18T15:01:05.913Z,7.07
2023-04-18T15:03:33.238Z,6.50
2023-04-18T15:06:00.186Z,6.20
2023-04-18T15:08:32.707Z,6.80
2023-04-18T15:10:59.885Z,6.78
2023-04-18T15:13:26.768Z,7.10
2023-04-18T15:15:54.652Z,7.25
2023-04-18T15:18:21.577Z,8.45
2023-04-18T15:20:48.368Z,8.23
2023-04-18T15:23:15.454Z,8.40
2023-04-18T15:25:44.565Z,8.73
2023-04-18T15:28:14.885Z,8.32
2023-04-18T15:30:41.626Z,8.65
2023-04-18T15:33:08.598Z,8.23
2023-04-18T15:35:35.812Z,7.95
2023-04-18T15:38:02.479Z,8.30
2023-04-18T15:40:29.086Z,8.45
2023-04-18T15:42:57.734Z,9.02
2023-04-18T15:45:24.321Z,8.50
2023-04-18T15:47:51.502Z,8.20
2023-04-18T15:50:18.531Z,8.70
2023-04-18T15:52:45.330Z,7.75
2023-04-18T15:55:13.202Z,7.55
2023-04-18T15:57:40.568Z,7.57
2023-04-18T16:00:16.024Z,8.23
2023-04-18T16:02:46.327Z,7.25
2023-04-18T16:05:15.261Z,7.65
2023-04-18T16:07:42.732Z,7.10
2023-04-18T16:10:11.164Z,7.35
2023-04-18T16:12:39.803Z,6.82
2023-04-18T16:15:08.647Z,8.48
2023-04-18T16:17:38.592Z,7.38
2023-04-18T16:20:06.217Z,7.47
2023-04-18T16:22:33.551Z,7.55
2023-04-18T16:25:00.578Z,7.72
2023-04-18T16:27:28.060Z,7.38
2023-04-18T16:29:54.717Z,6.90
2023-04-18T16:32:21.436Z,6.80
2023-04-18T16:34:48.424Z,6.78
2023-04-18T16:37:15.171Z,7.35
2023-04-18T16:39:41.852Z,7.63
2023-04-18T16:42:08.544Z,7.40
2023-04-18T16:44:35.326Z,6.55
2023-04-18T16:47:01.998Z,6.97
2023-04-18T16:49:28.570Z,6.68
2023-04-18T16:51:55.207Z,6.53
2023-04-18T16:54:21.881Z,6.97
2023-04-18T16:56:48.647Z,6.65
2023-04-18T16:59:15.584Z,6.35
2023-04-18T17:01:42.204Z,6.20
2023-04-18T17:04:09.983Z,6.63
2023-04-18T17:06:36.704Z,6.43
2023-04-18T17:09:06.507Z,5.80
2023-04-18T17:11:38.776Z,5.70
2023-04-18T17:14:06.144Z,5.90
2023-04-18T17:16:34.484Z,5.45
2023-04-18T17:19:01.684Z,5.38
2023-04-18T17:21:28.287Z,5.85
2023-04-18T17:23:56.340Z,5.90
2023-04-18T17:26:25.434Z,5.70
2023-04-18T17:28:52.892Z,6.28
2023-04-18T17:31:19.628Z,5.80
2023-04-18T17:33:48.804Z,8.20
2023-04-18T17:36:15.722Z,6.70
2023-04-18T17:38:48.813Z,6.38
2023-04-18T17:41:16.818Z,7.07
2023-04-18T17:43:45.338Z,6.63
2023-04-18T17:46:13.485Z,6.93
2023-04-18T17:48:41.457Z,7.13
2023-04-18T17:51:09.740Z,7.20
2023-04-18T17:53:36.304Z,7.50
2023-04-18T17:56:03.882Z,7.93
2023-04-18T17:58:31.597Z,6.93
2023-04-18T18:00:58.406Z,6.90
2023-04-18T18:03:25.553Z,7.10
2023-04-18T18:05:54.724Z,6.85
2023-04-18T18:08:21.954Z,6.40
2023-04-18T18:10:48.712Z,8.40
2023-04-18T18:13:15.911Z,7.57
2023-04-18T18:15:42.477Z,6.70
2023-04-18T18:18:09.264Z,7.15
2023-04-18T18:20:36.228Z,7.63
2023-04-18T18:23:03.166Z,7.43
2023-04-18T18:25:31.140Z,8.05
2023-04-18T18:27:58.158Z,7.60
2023-04-18T18:30:24.798Z,7.22
2023-04-18T18:32:53.553Z,6.93
2023-04-18T18:35:20.619Z,7.32
2023-04-18T18:37:47.247Z,7.35
2023-04-18T18:40:13.892Z,7.65
2023-04-18T18:42:41.041Z,8.50
2023-04-18T18:45:10.159Z,8.13
2023-04-18T18:47:39.621Z,8.15
2023-04-18T18:50:07.628Z,7.90
2023-04-18T18:52:35.571Z,8.75
2023-04-18T18:55:03.176Z,8.50
2023-04-18T18:57:29.765Z,7.85
2023-04-18T18:59:56.334Z,7.97
2023-04-18T19:02:23.437Z,8.38
2023-04-18T19:04:50.479Z,8.18
2023-04-18T19:07:18.481Z,8.88
2023-04-18T19:09:46.398Z,8.02
2023-04-18T19:12:13.023Z,7.97
2023-04-18T19:14:41.296Z,7.82
2023-04-18T19:17:09.267Z,8.13
2023-04-18T19:19:37.062Z,8.52
2023-04-18T19:22:03.761Z,7.90
2023-04-18T19:24:31.823Z,8.45
2023-04-18T19:26:59.979Z,7.65
2023-04-18T19:29:26.676Z,8.43
2023-04-18T19:31:53.931Z,8.63
2023-04-18T19:34:22.312Z,7.95
2023-04-18T19:36:49.187Z,8.00
2023-04-18T19:39:16.972Z,8.38
2023-04-18T19:41:43.913Z,8.40
2023-04-18T19:44:10.465Z,8.38
2023-04-18T19:46:39.358Z,8.13
2023-04-18T19:49:06.309Z,8.48
2023-04-18T19:51:33.276Z,8.50
2023-04-18T19:53:59.887Z,7.60
2023-04-18T19:56:26.540Z,8.00
2023-04-18T19:58:53.248Z,8.27
2023-04-18T20:01:21.000Z,8.02
2023-04-18T20:03:48.467Z,7.88
2023-04-18T20:06:17.561Z,7.85
2023-04-18T20:08:49.622Z,7.13
2023-04-18T20:11:16.198Z,7.82
2023-04-18T20:13:43.187Z,8.23
2023-04-18T20:16:12.143Z,7.88
2023-04-18T20:18:41.916Z,7.13
2023-04-18T20:21:09.516Z,7.25
2023-04-18T20:23:38.760Z,7.97
2023-04-18T20:26:05.474Z,6.97
2023-04-18T20:28:32.276Z,7.95
2023-04-18T20:31:00.361Z,7.78
2023-04-18T20:33:29.181Z,7.43
2023-04-18T20:35:56.027Z,7.20
2023-04-18T20:38:29.313Z,7.78
2023-04-18T20:40:58.172Z,7.32
2023-04-18T20:43:24.852Z,7.90
2023-04-18T20:45:53.872Z,7.55
2023-04-18T20:48:23.301Z,7.03
2023-04-18T20:50:52.917Z,7.28
2023-04-18T20:53:21.321Z,7.30
2023-04-18T20:55:51.227Z,6.45
2023-04-18T20:58:18.681Z,7.28
2023-04-18T21:00:45.304Z,9.02
2023-04-18T21:03:14.965Z,7.18
2023-04-18T21:05:43.349Z,7.03
2023-04-18T21:08:11.165Z,7.68
2023-04-18T21:10:38.047Z,7.10
2023-04-18T21:13:04.648Z,7.13
2023-04-18T21:15:31.603Z,6.95
2023-04-18T21:17:58.262Z,6.80
2023-04-18T21:20:25.014Z,6.22
2023-04-18T21:22:52.033Z,6.90
2023-04-18T21:25:23.424Z,6.50
2023-04-18T21:27:50.889Z,7.22
2023-04-18T21:30:17.990Z,6.57
2023-04-18T21:32:46.138Z,6.70
2023-04-18T21:35:14.221Z,6.68
2023-04-18T21:37:40.720Z,6.65
2023-04-18T21:40:07.914Z,6.28
2023-04-18T21:42:37.527Z,6.63
2023-04-18T21:45:06.405Z,6.35
2023-04-18T21:47:33.126Z,6.05
2023-04-18T21:49:59.803Z,6.53
2023-04-18T21:52:26.365Z,6.65
2023-04-18T21:54:53.890Z,6.13
2023-04-18T21:57:20.484Z,6.97
2023-04-18T21:59:48.089Z,6.82
2023-04-18T22:02:14.754Z,6.85
2023-04-18T22:04:42.786Z,6.70
2023-04-18T22:07:11.427Z,6.22
2023-04-18T22:09:38.137Z,6.80
2023-04-18T22:12:05.643Z,6.60
2023-04-18T22:14:35.132Z,5.72
2023-04-18T22:17:03.284Z,5.90
2023-04-18T22:19:31.277Z,6.30
2023-04-18T22:21:58.903Z,6.40
2023-04-18T22:24:28.330Z,5.53
2023-04-18T22:26:55.006Z,5.90
2023-04-18T22:29:22.724Z,5.82
2023-04-18T22:31:49.231Z,5.50
2023-04-18T22:34:16.068Z,5.93
2023-04-18T22:36:43.801Z,5.43
2023-04-18T22:39:12.446Z,6.65
2023-04-18T22:41:39.058Z,5.55
2023-04-18T22:44:09.206Z,5.82
2023-04-18T22:46:39.279Z,5.03
2023-04-18T22:49:06.178Z,5.55
2023-04-18T22:51:32.972Z,4.32
2023-04-18T22:53:59.644Z,5.50
2023-04-18T22:56:26.521Z,4.80
2023-04-18T22:58:53.357Z,4.70
2023-04-18T23:01:19.985Z,4.68
2023-04-18T23:03:47.971Z,5.10
2023-04-18T23:06:14.722Z,5.10
2023-04-18T23:08:41.631Z,5.20
2023-04-18T23:11:10.630Z,4.78
2023-04-18T23:13:37.404Z,4.40
2023-04-18T23:16:06.044Z,4.85
2023-04-18T23:18:33.032Z,5.03
2023-04-18T23:21:01.423Z,4.65
2023-04-18T23:23:28.370Z,4.40
2023-04-18T23:25:55.264Z,4.82
2023-04-18T23:28:21.852Z,4.43
2023-04-18T23:30:50.153Z,4.35
2023-04-18T23:33:17.101Z,4.15
2023-04-18T23:35:43.723Z,5.30
2023-04-18T23:38:10.296Z,4.72
2023-04-18T23:40:36.820Z,4.95
2023-04-18T23:43:03.495Z,4.97
2023-04-18T23:45:30.166Z,4.85
2023-04-18T23:47:57.348Z,5.47
2023-04-18T23:50:24.533Z,5.10
2023-04-18T23:52:51.390Z,4.80
2023-04-18T23:55:17.996Z,5.57
2023-04-18T23:57:44.700Z,4.88
